Time;durP1;ratioP1;P1;durP2;ratioP2;P2;SDS_P1;SDS_P2;PMS_P1;PMS_P2;Temp;Humidity;BMP_temperature;BMP_pressure;BME280_temperature;BME280_humidity;BME280_pressure;Samples;Min_cycle;Max_cycle;Signal;HPM_P1;HPM_P2
2022/07/31 00:00:11;;;;;;;12.63;11.52;;;22.50;99.90;;;;;;5126882;27;20031;-49
2022/07/31 00:02:37;;;;;;;12.15;10.80;;;22.50;99.90;;;;;;5100516;27;20104;-49
2022/07/31 00:05:04;;;;;;;8.90;8.20;;;22.50;99.90;;;;;;5106897;27;20474;-49
2022/07/31 00:07:29;;;;;;;8.77;7.50;;;22.60;99.90;;;;;;5110631;27;20062;-49
2022/07/31 00:09:55;;;;;;;6.95;6.28;;;22.60;99.90;;;;;;5131206;27;20477;-49
2022/07/31 00:12:21;;;;;;;9.43;7.03;;;22.40;99.90;;;;;;5127665;27;20024;-49
2022/07/31 00:14:48;;;;;;;6.78;6.15;;;22.40;99.90;;;;;;5126790;27;20102;-49
2022/07/31 00:17:14;;;;;;;7.03;6.43;;;22.40;99.90;;;;;;5127089;27;20056;-49
2022/07/31 00:19:43;;;;;;;8.05;7.22;;;22.30;99.90;;;;;;5128591;27;20087;-49
2022/07/31 00:22:09;;;;;;;8.23;7.43;;;22.20;99.90;;;;;;5117747;27;20172;-50
2022/07/31 00:24:35;;;;;;;7.40;6.80;;;22.20;99.90;;;;;;5123552;27;20046;-49
2022/07/31 00:27:01;;;;;;;9.57;6.50;;;22.20;99.90;;;;;;5126389;27;20035;-49
2022/07/31 00:29:26;;;;;;;6.47;5.88;;;22.30;99.90;;;;;;5098822;28;20035;-50
2022/07/31 00:31:52;;;;;;;6.97;5.78;;;22.30;99.90;;;;;;5122914;27;20023;-50
2022/07/31 00:34:18;;;;;;;7.28;6.55;;;22.30;99.90;;;;;;5134688;27;20019;-50
2022/07/31 00:36:44;;;;;;;8.18;6.35;;;22.30;99.90;;;;;;5134645;27;20020;-49
2022/07/31 00:39:09;;;;;;;8.02;6.30;;;22.20;99.90;;;;;;5123370;27;20031;-50
2022/07/31 00:41:41;;;;;;;6.60;6.00;;;22.30;99.90;;;;;;5128969;27;20114;-49
2022/07/31 00:44:07;;;;;;;8.85;6.20;;;22.20;99.90;;;;;;5121017;27;20066;-49
2022/07/31 00:46:33;;;;;;;7.55;5.72;;;22.20;99.90;;;;;;5123080;27;20046;-49
2022/07/31 00:48:59;;;;;;;6.57;5.90;;;22.20;99.90;;;;;;5126944;27;20035;-49
2022/07/31 00:51:25;;;;;;;6.15;5.50;;;22.30;99.90;;;;;;5104034;27;20035;-50
2022/07/31 00:53:51;;;;;;;6.32;5.70;;;22.20;99.90;;;;;;5104306;27;20066;-49
2022/07/31 00:56:16;;;;;;;6.65;5.72;;;22.20;99.90;;;;;;5099360;27;20573;-49
2022/07/31 00:58:42;;;;;;;8.07;5.88;;;22.20;99.90;;;;;;5117134;27;20063;-50
2022/07/31 01:01:08;;;;;;;6.35;5.38;;;22.20;99.90;;;;;;5125498;27;20374;-49
2022/07/31 01:03:34;;;;;;;5.70;5.20;;;22.10;99.90;;;;;;5132215;27;20107;-49
2022/07/31 01:06:00;;;;;;;6.28;5.38;;;22.10;99.90;;;;;;5126801;27;20053;-49
2022/07/31 01:08:26;;;;;;;6.97;6.25;;;22.20;99.90;;;;;;5122579;27;20023;-50
2022/07/31 01:11:03;;;;;;;6.25;5.53;;;22.20;99.90;;;;;;5131120;27;20029;-50
2022/07/31 01:13:44;;;;;;;6.50;5.60;;;22.20;99.90;;;;;;5121193;27;20055;-49
2022/07/31 01:16:11;;;;;;;6.35;5.07;;;22.20;99.90;;;;;;5130205;27;20401;-50
2022/07/31 01:18:39;;;;;;;5.30;4.80;;;22.10;99.90;;;;;;5109361;28;20032;-49
2022/07/31 01:21:08;;;;;;;5.68;5.15;;;22.10;99.90;;;;;;5123433;27;20430;-49
2022/07/31 01:23:41;;;;;;;6.20;4.88;;;22.10;99.90;;;;;;5121354;27;20028;-49
2022/07/31 01:26:47;;;;;;;6.05;5.18;;;22.00;99.90;;;;;;5121090;27;20039;-49
2022/07/31 01:29:36;;;;;;;5.18;4.70;;;22.10;99.90;;;;;;5126975;27;20047;-49
2022/07/31 01:32:12;;;;;;;6.15;5.38;;;22.00;99.90;;;;;;5128750;27;20030;-49
2022/07/31 01:34:43;;;;;;;5.20;4.72;;;22.00;99.90;;;;;;5103879;27;20493;-50
2022/07/31 01:37:22;;;;;;;5.32;4.68;;;22.10;99.90;;;;;;5124474;27;20123;-49
2022/07/31 01:39:58;;;;;;;5.78;4.53;;;22.10;99.90;;;;;;5128108;27;20119;-49
2022/07/31 01:42:25;;;;;;;5.82;5.22;;;22.10;99.90;;;;;;5121351;27;20030;-49
2022/07/31 01:44:56;;;;;;;6.45;5.28;;;22.10;99.90;;;;;;5120049;27;20433;-49
2022/07/31 01:47:24;;;;;;;6.85;5.05;;;22.10;99.90;;;;;;5125775;27;20031;-49
2022/07/31 01:49:51;;;;;;;6.07;5.03;;;22.10;99.90;;;;;;5131745;27;20043;-50
2022/07/31 01:52:19;;;;;;;6.07;5.13;;;22.10;99.90;;;;;;5126950;27;20118;-49
2022/07/31 01:54:47;;;;;;;12.43;5.63;;;22.10;99.90;;;;;;5124154;27;20039;-49
2022/07/31 01:57:14;;;;;;;5.32;4.82;;;22.00;99.90;;;;;;5123990;27;20019;-49
2022/07/31 01:59:41;;;;;;;5.60;5.10;;;21.90;99.90;;;;;;5122908;27;20036;-49
2022/07/31 02:02:07;;;;;;;7.18;5.13;;;22.00;99.90;;;;;;5117698;27;20072;-49
2022/07/31 02:04:34;;;;;;;6.95;4.78;;;22.00;99.90;;;;;;5123535;27;20405;-49
2022/07/31 02:07:03;;;;;;;6.93;4.75;;;22.00;99.90;;;;;;5127872;27;20031;-49
2022/07/31 02:09:30;;;;;;;5.10;4.63;;;22.00;99.90;;;;;;5131974;27;20030;-49
2022/07/31 02:11:57;;;;;;;5.38;4.65;;;21.90;99.90;;;;;;5124708;27;20023;-50
2022/07/31 02:14:27;;;;;;;5.55;4.60;;;22.00;99.90;;;;;;5129296;27;20034;-49
2022/07/31 02:16:58;;;;;;;5.03;4.53;;;22.00;99.90;;;;;;5123220;27;20058;-49
2022/07/31 02:19:25;;;;;;;5.32;4.85;;;22.00;99.90;;;;;;5124841;27;20386;-50
2022/07/31 02:21:51;;;;;;;9.27;5.50;;;22.00;99.90;;;;;;5121718;27;20032;-49
2022/07/31 02:24:17;;;;;;;6.40;4.40;;;22.00;99.90;;;;;;5122416;27;20072;-49
2022/07/31 02:26:44;;;;;;;7.82;4.60;;;22.00;99.90;;;;;;5132386;27;20055;-49
2022/07/31 02:29:12;;;;;;;6.53;4.85;;;22.00;99.90;;;;;;5130814;27;20437;-49
2022/07/31 02:31:40;;;;;;;4.85;4.35;;;22.00;99.90;;;;;;5126134;27;20080;-49
2022/07/31 02:34:11;;;;;;;5.53;4.82;;;22.00;99.90;;;;;;5138602;27;20377;-49
2022/07/31 02:36:37;;;;;;;6.90;4.37;;;22.00;99.90;;;;;;5134718;27;20031;-49
2022/07/31 02:39:04;;;;;;;4.85;4.38;;;22.10;99.90;;;;;;5128842;27;20082;-49
2022/07/31 02:41:30;;;;;;;5.00;4.50;;;22.10;99.90;;;;;;5133366;27;20051;-49
2022/07/31 02:43:56;;;;;;;5.15;4.65;;;22.00;99.90;;;;;;5071633;27;20104;-49
2022/07/31 02:46:22;;;;;;;4.72;4.30;;;22.00;99.90;;;;;;5127144;27;20031;-50
2022/07/31 02:48:48;;;;;;;4.93;4.40;;;22.00;99.90;;;;;;5127177;27;20106;-50
2022/07/31 02:51:15;;;;;;;6.68;4.60;;;22.00;99.90;;;;;;5130232;27;20027;-49
2022/07/31 02:53:41;;;;;;;4.88;4.25;;;22.00;99.90;;;;;;5131281;27;20037;-49
2022/07/31 02:56:08;;;;;;;4.93;4.32;;;22.00;99.90;;;;;;5105758;27;20040;-49
2022/07/31 02:58:36;;;;;;;7.63;4.85;;;22.00;99.90;;;;;;5122964;27;20031;-49
2022/07/31 03:01:05;;;;;;;4.65;4.25;;;22.00;99.90;;;;;;5119846;27;20076;-49
2022/07/31 03:03:31;;;;;;;4.95;4.35;;;22.00;99.90;;;;;;5131348;27;20057;-49
2022/07/31 03:05:57;;;;;;;4.75;4.35;;;22.00;99.90;;;;;;5133076;27;20079;-49
2022/07/31 03:08:23;;;;;;;5.13;4.63;;;22.00;99.90;;;;;;5113058;27;20483;-49
2022/07/31 03:10:49;;;;;;;5.30;4.28;;;21.90;99.90;;;;;;5129684;27;20028;-50
2022/07/31 03:13:17;;;;;;;5.10;4.63;;;22.00;99.90;;;;;;5130588;27;20027;-49
2022/07/31 03:15:45;;;;;;;7.25;5.38;;;22.00;99.90;;;;;;5124194;27;20038;-49
2022/07/31 03:18:13;;;;;;;5.28;4.75;;;21.90;99.90;;;;;;5126924;27;20084;-49
2022/07/31 03:20:41;;;;;;;5.57;4.78;;;21.80;99.90;;;;;;5119917;27;20475;-49
2022/07/31 03:23:09;;;;;;;8.63;5.00;;;21.80;99.90;;;;;;5128422;27;20027;-49
2022/07/31 03:25:35;;;;;;;5.75;5.15;;;21.90;99.90;;;;;;5124987;27;20053;-49
2022/07/31 03:28:01;;;;;;;6.57;4.88;;;21.90;99.90;;;;;;5120745;27;20485;-49
2022/07/31 03:30:27;;;;;;;5.57;5.03;;;21.90;99.90;;;;;;5108211;27;20031;-49
2022/07/31 03:32:54;;;;;;;5.47;4.72;;;21.90;99.90;;;;;;5122066;27;20128;-49
2022/07/31 03:35:21;;;;;;;5.30;4.60;;;21.80;99.90;;;;;;5128050;27;20088;-49
2022/07/31 03:37:47;;;;;;;6.10;5.28;;;21.80;99.90;;;;;;5127622;27;20031;-50
2022/07/31 03:40:13;;;;;;;6.82;5.50;;;21.90;99.90;;;;;;5104971;27;20047;-49
2022/07/31 03:42:42;;;;;;;6.47;5.07;;;21.90;99.90;;;;;;5120374;27;20084;-49
2022/07/31 03:45:11;;;;;;;5.90;5.28;;;21.80;99.90;;;;;;5066338;28;20063;-49
2022/07/31 03:47:37;;;;;;;6.55;5.50;;;21.80;99.90;;;;;;5103780;28;20492;-50
2022/07/31 03:50:07;;;;;;;6.22;5.55;;;21.80;99.90;;;;;;5108251;28;20035;-48
2022/07/31 03:52:34;;;;;;;6.35;4.90;;;21.70;99.90;;;;;;5090935;28;20019;-49
2022/07/31 03:55:00;;;;;;;6.15;5.50;;;21.70;99.90;;;;;;5099762;28;20072;-48
2022/07/31 03:57:28;;;;;;;10.70;6.03;;;;;;;;;;5088754;28;20043;-50
2022/07/31 03:59:56;;;;;;;11.07;6.10;;;;;;;;;;5088757;28;20093;-49
2022/07/31 04:02:25;;;;;;;6.72;5.88;;;;;;;;;;5089928;28;20082;-49
2022/07/31 04:04:51;;;;;;;7.68;6.22;;;21.50;99.90;;;;;;5087145;28;20037;-50
2022/07/31 04:07:18;;;;;;;5.72;5.20;;;;;;;;;;5080705;28;20072;-52
2022/07/31 04:09:44;;;;;;;7.00;5.15;;;;;;;;;;5088092;28;20039;-49
2022/07/31 04:12:10;;;;;;;6.78;6.07;;;21.30;99.90;;;;;;5088883;28;20044;-50
2022/07/31 04:14:36;;;;;;;7.75;6.72;;;21.20;99.90;;;;;;5070753;28;20642;-49
2022/07/31 04:17:01;;;;;;;7.47;6.15;;;21.30;99.90;;;;;;5084268;28;20049;-50
2022/07/31 04:19:29;;;;;;;5.63;5.00;;;21.30;99.90;;;;;;5076426;28;20036;-52
2022/07/31 04:21:56;;;;;;;6.30;5.25;;;21.30;99.90;;;;;;5088876;27;20508;-52
2022/07/31 04:24:22;;;;;;;9.10;6.30;;;21.30;99.90;;;;;;5125355;27;20038;-50
2022/07/31 04:26:49;;;;;;;6.38;4.70;;;21.50;99.90;;;;;;5087020;28;20051;-52
2022/07/31 04:29:15;;;;;;;52.20;20.70;;;21.60;99.90;;;;;;5086431;28;20044;-50
2022/07/31 04:31:41;;;;;;;15.18;9.20;;;21.80;99.90;;;;;;5046621;28;20095;-51
2022/07/31 04:34:07;;;;;;;10.32;6.32;;;21.90;99.90;;;;;;5043995;28;20519;-50
2022/07/31 04:36:33;;;;;;;8.20;5.13;;;21.90;99.90;;;;;;5033970;28;20072;-51
2022/07/31 04:38:59;;;;;;;10.88;5.65;;;22.10;99.90;;;;;;5068795;28;20693;-52
2022/07/31 04:41:26;;;;;;;5.32;4.80;;;22.10;99.90;;;;;;5068870;28;20040;-51
2022/07/31 04:43:52;;;;;;;7.88;5.55;;;22.20;99.90;;;;;;5068739;28;20037;-51
2022/07/31 04:46:18;;;;;;;5.68;5.18;;;22.30;99.90;;;;;;5068988;28;20044;-51
2022/07/31 04:48:44;;;;;;;16.58;6.40;;;;;;;;;;5069369;28;20048;-51
2022/07/31 04:51:16;;;;;;;7.18;6.30;;;;;;;;;;5067940;28;20044;-51
2022/07/31 04:53:42;;;;;;;6.13;5.45;;;;;;;;;;5048238;28;20411;-51
2022/07/31 04:58:53;;;;;;;5.05;4.03;;;;;;;;;;5048130;28;20179;-51
2022/07/31 05:01:19;;;;;;;6.57;5.10;;;;;;;;;;5079362;28;20033;-51
2022/07/31 05:03:45;;;;;;;7.43;4.63;;;;;;;;;;5074410;28;20044;-51
2022/07/31 05:06:12;;;;;;;5.93;4.60;;;;;;;;;;5074520;28;20038;-51
2022/07/31 05:08:38;;;;;;;6.65;5.50;;;;;;;;;;5089266;27;20062;-50
2022/07/31 05:11:23;;;;;;;5.68;5.07;;;;;;;;;;5116543;27;20489;-52
2022/07/31 05:13:50;;;;;;;9.25;5.90;;;;;;;;;;5110802;27;20055;-50
2022/07/31 05:16:17;;;;;;;6.90;6.07;;;;;;;;;;5123022;27;20651;-51
2022/07/31 05:18:44;;;;;;;6.78;5.78;;;;;;;;;;5117889;27;20031;-51
2022/07/31 05:21:10;;;;;;;7.25;6.53;;;;;;;;;;5125330;27;20063;-51
2022/07/31 05:23:37;;;;;;;7.80;6.93;;;;;;;;;;5118384;27;20028;-51
2022/07/31 05:26:04;;;;;;;6.65;5.53;;;;;;;;;;5120146;27;20035;-51
2022/07/31 05:28:30;;;;;;;7.05;6.32;;;;;;;;;;5131045;27;20030;-51
2022/07/31 05:30:56;;;;;;;8.85;6.47;;;;;;;;;;5120209;27;20426;-51
2022/07/31 05:33:22;;;;;;;5.90;5.30;;;;;;;;;;5125585;27;20088;-51
2022/07/31 05:35:49;;;;;;;7.18;6.25;;;;;;;;;;5100884;27;20044;-51
2022/07/31 05:38:15;;;;;;;9.50;6.63;;;;;;;;;;5126788;27;20121;-51
2022/07/31 05:40:41;;;;;;;8.25;7.05;;;;;;;;;;5105767;27;20114;-51
2022/07/31 05:43:09;;;;;;;8.80;6.88;;;;;;;;;;5117862;27;20033;-51
2022/07/31 05:45:35;;;;;;;7.38;6.68;;;;;;;;;;5125883;27;20046;-48
2022/07/31 05:48:02;;;;;;;8.02;6.63;;;;;;;;;;5119656;27;20031;-48
2022/07/31 05:50:28;;;;;;;6.75;5.88;;;;;;;;;;5121769;27;20037;-50
2022/07/31 05:52:54;;;;;;;7.10;6.25;;;;;;;;;;5115144;27;20126;-48
2022/07/31 05:55:20;;;;;;;11.20;6.15;;;;;;;;;;5122214;27;20117;-48
2022/07/31 05:57:47;;;;;;;7.90;5.95;;;;;;;;;;5122157;27;20020;-50
2022/07/31 06:00:15;;;;;;;9.05;5.95;;;;;;;;;;5121274;27;20038;-48
2022/07/31 06:02:41;;;;;;;6.25;4.15;;;;;;;;;;5126722;27;20023;-49
2022/07/31 06:05:07;;;;;;;10.18;5.63;;;;;;;;;;5118422;27;20105;-51
2022/07/31 06:07:33;;;;;;;6.63;6.00;;;;;;;;;;5126930;27;20047;-49
2022/07/31 06:09:59;;;;;;;5.20;4.63;;;;;;;;;;5124786;27;20122;-49
2022/07/31 06:12:26;;;;;;;5.22;4.70;;;;;;;;;;5119497;27;20119;-50
2022/07/31 06:14:52;;;;;;;8.35;4.85;;;;;;;;;;5130117;27;20023;-49
2022/07/31 06:17:18;;;;;;;5.63;5.05;;;;;;;;;;5122246;27;20058;-49
2022/07/31 06:19:44;;;;;;;4.55;4.15;;;;;;;;;;5123866;27;20097;-49
2022/07/31 06:22:10;;;;;;;5.75;4.40;;;;;;;;;;5124460;27;20027;-49
2022/07/31 06:24:36;;;;;;;6.85;4.43;;;;;;;;;;5118663;27;20031;-50
2022/07/31 06:27:03;;;;;;;5.13;4.60;;;;;;;;;;5126977;27;20039;-49
2022/07/31 06:29:29;;;;;;;4.68;4.03;;;;;;;;;;5118696;27;20035;-49
2022/07/31 06:31:55;;;;;;;5.95;4.57;;;;;;;;;;5118542;27;20059;-49
2022/07/31 06:34:22;;;;;;;5.28;4.50;;;;;;;;;;5125273;27;20378;-49
2022/07/31 06:36:48;;;;;;;5.03;4.50;;;;;;;;;;5134298;27;20480;-49
2022/07/31 06:39:15;;;;;;;5.40;4.00;;;;;;;;;;5126226;27;20039;-49
2022/07/31 06:41:45;;;;;;;5.20;4.57;;;;;;;;;;5130165;27;20069;-49
2022/07/31 06:44:12;;;;;;;4.95;4.22;;;;;;;;;;5125997;27;20034;-50
2022/07/31 06:46:38;;;;;;;5.13;4.35;;;;;;;;;;5120662;27;20470;-49
2022/07/31 06:49:05;;;;;;;4.75;4.25;;;;;;;;;;5122638;27;20027;-51
2022/07/31 06:51:31;;;;;;;6.88;4.60;;;;;;;;;;5123393;27;20040;-49
2022/07/31 06:53:58;;;;;;;4.38;3.90;;;;;;;;;;5097391;28;20084;-52
2022/07/31 06:56:24;;;;;;;5.25;4.43;;;;;;;;;;5127627;27;20042;-49
2022/07/31 06:58:50;;;;;;;8.23;4.80;;;;;;;;;;5118845;27;20050;-49
2022/07/31 07:01:16;;;;;;;4.78;4.35;;;;;;;;;;5122652;27;20156;-49
2022/07/31 07:03:42;;;;;;;7.35;3.83;;;;;;;;;;5116276;27;20042;-51
2022/07/31 07:06:09;;;;;;;5.10;4.43;;;;;;;;;;5120688;27;20015;-49
2022/07/31 07:08:35;;;;;;;5.93;4.35;;;;;;;;;;5095496;28;20035;-50
2022/07/31 07:11:01;;;;;;;5.53;3.65;;;;;;;;;;5102420;28;20046;-50
2022/07/31 07:13:27;;;;;;;5.22;4.28;;;;;;;;;;5125684;27;20019;-50
2022/07/31 07:15:53;;;;;;;5.45;4.95;;;;;;;;;;5121930;27;20037;-50
2022/07/31 07:18:20;;;;;;;5.00;3.70;;;;;;;;;;5125883;27;20073;-49
2022/07/31 07:20:47;;;;;;;4.00;3.65;;;;;;;;;;5126991;27;20035;-50
2022/07/31 07:23:13;;;;;;;4.40;3.70;;;26.00;99.90;;;;;;5127135;27;20096;-49
2022/07/31 07:25:39;;;;;;;5.60;3.40;;;25.90;99.90;;;;;;5119580;27;20031;-50
2022/07/31 07:28:06;;;;;;;5.88;3.42;;;26.10;99.90;;;;;;5127253;27;20051;-49
2022/07/31 07:30:32;;;;;;;3.88;2.70;;;;;;;;;;5130396;27;20085;-50
2022/07/31 07:32:59;;;;;;;6.68;3.00;;;;;;;;;;5125468;27;20031;-49
2022/07/31 07:35:25;;;;;;;2.53;2.30;;;;;;;;;;5123081;27;20023;-50
2022/07/31 07:37:51;;;;;;;4.80;2.65;;;;;;;;;;5130125;27;20023;-49
2022/07/31 07:40:17;;;;;;;5.43;2.20;;;;;;;;;;5118882;27;20403;-50
2022/07/31 07:42:43;;;;;;;2.85;2.15;;;;;;;;;;5129190;27;20122;-50
2022/07/31 07:45:10;;;;;;;2.60;2.40;;;;;;;;;;5126912;27;20023;-50
2022/07/31 07:47:37;;;;;;;3.78;2.50;;;;;;;;;;5125707;27;20038;-49
2022/07/31 07:50:07;;;;;;;4.55;2.20;;;26.40;99.90;;;;;;5132089;27;20077;-49
2022/07/31 07:52:36;;;;;;;4.20;2.10;;;26.40;99.90;;;;;;5105888;27;20043;-50
2022/07/31 07:55:03;;;;;;;3.85;2.03;;;26.70;99.90;;;;;;5127833;27;20031;-49
2022/07/31 07:57:29;;;;;;;6.82;2.47;;;26.70;99.90;;;;;;5127321;27;20035;-50
2022/07/31 07:59:58;;;;;;;1.98;1.80;;;26.80;99.90;;;;;;5071727;27;20035;-50
2022/07/31 08:02:23;;;;;;;2.28;2.00;;;26.60;99.90;;;;;;5123079;27;20386;-50
2022/07/31 08:04:49;;;;;;;2.75;2.15;;;26.90;99.90;;;;;;5126770;27;20031;-49
2022/07/31 08:07:15;;;;;;;2.58;2.05;;;26.90;99.90;;;;;;5100999;28;20055;-49
2022/07/31 08:09:41;;;;;;;3.75;2.22;;;26.90;99.90;;;;;;5126115;27;20035;-50
2022/07/31 08:12:07;;;;;;;2.25;1.88;;;27.10;99.90;;;;;;5123136;27;20570;-50
2022/07/31 08:14:33;;;;;;;3.60;1.80;;;;;;;;;;5123594;27;20098;-51
2022/07/31 08:16:59;;;;;;;2.50;2.00;;;;;;;;;;5119173;27;20401;-49
2022/07/31 08:19:25;;;;;;;2.78;1.80;;;27.30;99.90;;;;;;5123727;27;20027;-49
2022/07/31 08:21:51;;;;;;;2.63;1.70;;;;;;;;;;5125599;27;20432;-49
2022/07/31 08:24:17;;;;;;;2.10;1.90;;;27.50;99.90;;;;;;5100321;27;20046;-49
2022/07/31 08:29:27;;;;;;;2.38;2.03;;;27.30;99.90;;;;;;5120347;27;20490;-50
2022/07/31 08:31:53;;;;;;;1.92;1.73;;;27.50;99.90;;;;;;5119300;27;20027;-49
2022/07/31 08:34:19;;;;;;;2.15;1.83;;;27.50;99.90;;;;;;5128265;27;20027;-50
2022/07/31 08:36:45;;;;;;;3.25;2.05;;;27.40;99.90;;;;;;5136039;27;20050;-50
2022/07/31 08:39:11;;;;;;;2.08;1.83;;;;;;;;;;5100601;27;20047;-51
2022/07/31 08:41:39;;;;;;;2.78;1.58;;;27.60;99.90;;;;;;5130291;27;20034;-51
2022/07/31 08:44:09;;;;;;;2.55;1.80;;;27.70;99.90;;;;;;5125206;27;21117;-47
2022/07/31 08:46:37;;;;;;;2.65;2.20;;;27.80;99.90;;;;;;5123602;27;20453;-51
2022/07/31 08:49:05;;;;;;;1.98;1.50;;;27.90;99.90;;;;;;5125557;27;20034;-50
2022/07/31 08:51:36;;;;;;;2.33;2.03;;;27.90;99.90;;;;;;5124626;27;20019;-51
2022/07/31 08:54:05;;;;;;;3.63;1.80;;;;;;;;;;5120023;27;20474;-51
2022/07/31 08:56:34;;;;;;;4.25;2.25;;;27.50;99.90;;;;;;5117954;27;20038;-51
2022/07/31 08:59:01;;;;;;;2.00;1.80;;;27.70;99.90;;;;;;5119769;27;20073;-52
2022/07/31 09:01:27;;;;;;;3.35;1.70;;;27.70;99.90;;;;;;5125879;27;20062;-51
2022/07/31 09:03:53;;;;;;;2.20;2.00;;;;;;;;;;5119758;27;20062;-51
2022/07/31 09:06:19;;;;;;;2.65;1.73;;;28.20;99.90;;;;;;5122781;27;20045;-51
2022/07/31 09:08:45;;;;;;;3.78;1.90;;;28.30;99.90;;;;;;5125471;27;20073;-53
2022/07/31 09:11:13;;;;;;;3.00;1.95;;;28.30;99.90;;;;;;5101516;27;20031;-52
2022/07/31 09:13:50;;;;;;;2.83;1.90;;;28.30;99.90;;;;;;5119293;27;20027;-52
2022/07/31 09:16:18;;;;;;;2.58;1.63;;;28.50;99.90;;;;;;5124000;27;20474;-51
2022/07/31 09:18:53;;;;;;;6.47;2.00;;;28.30;99.90;;;;;;5116267;27;20458;-51
2022/07/31 09:21:19;;;;;;;2.28;1.77;;;28.40;99.90;;;;;;5119961;27;20043;-51
2022/07/31 09:23:46;;;;;;;2.28;2.00;;;28.60;99.90;;;;;;5115925;27;20073;-52
2022/07/31 09:26:12;;;;;;;2.95;1.80;;;28.70;99.90;;;;;;5116409;27;20031;-51
2022/07/31 09:28:40;;;;;;;2.08;1.73;;;;;;;;;;5114168;27;20039;-51
2022/07/31 09:31:07;;;;;;;2.88;1.60;;;;;;;;;;5118850;27;20047;-51
2022/07/31 09:33:37;;;;;;;2.90;1.70;;;;;;;;;;5122737;27;20031;-51
2022/07/31 09:36:03;;;;;;;2.50;1.70;;;29.00;99.90;;;;;;5128092;27;20043;-51
2022/07/31 09:38:32;;;;;;;1.83;1.50;;;29.10;99.90;;;;;;5093350;28;20142;-52
2022/07/31 09:41:14;;;;;;;2.65;2.00;;;29.10;99.90;;;;;;5069718;28;20036;-57
2022/07/31 09:43:41;;;;;;;2.60;1.67;;;29.20;99.90;;;;;;5079430;28;20031;-51
2022/07/31 09:46:08;;;;;;;2.85;1.52;;;29.20;99.90;;;;;;5097258;28;20035;-53
2022/07/31 09:48:36;;;;;;;3.65;1.80;;;29.50;99.90;;;;;;5095354;28;20039;-52
2022/07/31 09:51:04;;;;;;;2.03;1.40;;;29.50;99.00;;;;;;5089853;28;20158;-51
2022/07/31 09:53:45;;;;;;;1.98;1.70;;;29.50;98.90;;;;;;5094576;28;20476;-51
2022/07/31 09:56:13;;;;;;;2.90;1.73;;;29.40;98.40;;;;;;5097869;28;20033;-50
2022/07/31 09:58:40;;;;;;;0.90;0.90;;;29.20;98.40;;;;;;5093036;28;20056;-50
2022/07/31 10:01:09;;;;;;;2.10;1.42;;;29.60;97.70;;;;;;5065751;28;20070;-51
2022/07/31 10:03:37;;;;;;;1.77;1.38;;;29.50;97.30;;;;;;5095142;28;20032;-51
2022/07/31 10:06:05;;;;;;;2.15;1.30;;;29.70;97.70;;;;;;5095636;28;20028;-53
2022/07/31 10:08:35;;;;;;;2.28;1.67;;;29.30;97.30;;;;;;5098852;28;20035;-50
2022/07/31 10:11:05;;;;;;;2.53;2.33;;;29.70;96.10;;;;;;5120820;27;20492;-52
2022/07/31 10:13:37;;;;;;;1.73;1.40;;;29.80;96.30;;;;;;5119657;27;20393;-52
2022/07/31 10:16:05;;;;;;;2.65;1.70;;;29.80;95.70;;;;;;5119366;27;20563;-55
2022/07/31 10:18:36;;;;;;;2.78;1.50;;;29.30;95.80;;;;;;5123064;27;20106;-52
2022/07/31 10:21:05;;;;;;;1.55;1.38;;;29.50;96.00;;;;;;5102126;27;20604;-53
2022/07/31 10:23:33;;;;;;;3.90;1.80;;;29.70;96.00;;;;;;5124828;27;20454;-51
2022/07/31 10:26:00;;;;;;;3.30;1.50;;;29.30;95.80;;;;;;5113755;27;20034;-52
2022/07/31 10:28:30;;;;;;;2.90;1.83;;;28.80;96.20;;;;;;5124606;27;20027;-52
2022/07/31 10:30:56;;;;;;;1.80;1.60;;;29.20;96.90;;;;;;5121896;27;20130;-53
2022/07/31 10:33:23;;;;;;;4.30;1.67;;;29.70;95.80;;;;;;5127058;27;20028;-51
2022/07/31 10:36:04;;;;;;;3.92;1.60;;;29.50;95.10;;;;;;5128870;27;20023;-52
2022/07/31 10:38:32;;;;;;;1.45;1.35;;;29.40;95.20;;;;;;5117729;27;20838;-52
2022/07/31 10:41:03;;;;;;;3.53;1.48;;;29.60;94.30;;;;;;5114473;27;20039;-52
2022/07/31 10:43:42;;;;;;;2.20;1.98;;;29.60;94.20;;;;;;5118578;27;20028;-52
2022/07/31 10:46:08;;;;;;;1.63;1.48;;;30.00;93.60;;;;;;5126370;27;20038;-51
2022/07/31 10:48:34;;;;;;;2.30;1.58;;;30.00;93.30;;;;;;5081151;28;20032;-53
2022/07/31 10:51:06;;;;;;;2.53;1.50;;;29.90;93.00;;;;;;5116274;27;20046;-51
2022/07/31 10:53:32;;;;;;;1.20;1.10;;;30.00;92.40;;;;;;5127965;27;20114;-51
2022/07/31 10:56:09;;;;;;;1.23;1.10;;;29.50;92.20;;;;;;5120924;27;20119;-51
2022/07/31 10:58:52;;;;;;;3.80;1.48;;;29.40;92.10;;;;;;5126359;27;20606;-51
2022/07/31 11:01:18;;;;;;;1.65;1.45;;;29.50;92.00;;;;;;5121968;27;20367;-52
2022/07/31 11:03:47;;;;;;;2.05;1.40;;;29.50;92.70;;;;;;5127702;27;20046;-52
2022/07/31 11:06:14;;;;;;;3.15;1.60;;;29.10;93.10;;;;;;5133779;27;20054;-52
2022/07/31 11:08:42;;;;;;;3.20;1.63;;;29.50;93.30;;;;;;5124556;27;20038;-53
2022/07/31 11:11:08;;;;;;;2.70;1.70;;;29.60;92.30;;;;;;5126755;27;20024;-51
2022/07/31 11:13:45;;;;;;;2.35;2.05;;;29.40;92.40;;;;;;5125178;27;20039;-50
2022/07/31 11:16:11;;;;;;;2.08;1.40;;;29.90;92.00;;;;;;5126735;27;20059;-50
2022/07/31 11:18:37;;;;;;;1.85;1.30;;;;;;;;;;5123182;27;20077;-50
2022/07/31 11:21:05;;;;;;;4.60;1.55;;;;;;;;;;5130119;27;20059;-50
2022/07/31 11:23:33;;;;;;;1.90;1.30;;;30.40;99.90;;;;;;5124679;27;20023;-50
2022/07/31 11:26:05;;;;;;;4.15;1.75;;;30.20;99.90;;;;;;5117555;27;20077;-50
2022/07/31 11:28:32;;;;;;;2.88;1.33;;;30.50;99.90;;;;;;5124144;27;20042;-50
2022/07/31 11:31:06;;;;;;;2.42;2.00;;;30.30;99.90;;;;;;5127100;27;20031;-51
2022/07/31 11:33:42;;;;;;;2.20;1.58;;;29.80;99.90;;;;;;5132572;27;20015;-51
2022/07/31 11:36:23;;;;;;;1.50;1.40;;;29.70;99.90;;;;;;5120038;27;20041;-51
2022/07/31 11:38:52;;;;;;;1.75;1.45;;;29.20;90.20;;;;;;5118950;27;20477;-51
2022/07/31 11:41:22;;;;;;;2.28;1.42;;;29.40;90.20;;;;;;5123267;27;20032;-50
2022/07/31 11:43:50;;;;;;;2.00;1.55;;;29.70;89.90;;;;;;5127742;27;20041;-51
2022/07/31 11:46:30;;;;;;;2.25;1.25;;;30.00;89.20;;;;;;5096240;28;20122;-50
2022/07/31 11:48:57;;;;;;;2.60;1.40;;;30.00;88.50;;;;;;5097716;28;20156;-51
2022/07/31 11:51:24;;;;;;;1.60;1.48;;;30.30;88.80;;;;;;5082055;28;20032;-53
2022/07/31 11:53:51;;;;;;;1.48;1.00;;;29.90;87.70;;;;;;5098337;28;20042;-50
2022/07/31 11:56:18;;;;;;;1.80;1.50;;;29.30;87.90;;;;;;5097346;28;20050;-50
2022/07/31 11:58:48;;;;;;;3.20;1.50;;;29.80;89.70;;;;;;5093374;28;20038;-50
2022/07/31 12:01:15;;;;;;;2.53;1.70;;;30.20;88.10;;;;;;5095569;28;20110;-50
2022/07/31 12:03:41;;;;;;;2.10;1.30;;;30.50;88.40;;;;;;5099777;28;20077;-50
2022/07/31 12:06:08;;;;;;;6.03;1.50;;;30.20;87.80;;;;;;5096461;28;20421;-50
2022/07/31 12:08:35;;;;;;;1.50;1.40;;;30.10;87.10;;;;;;5094025;28;20066;-50
2022/07/31 12:11:03;;;;;;;3.40;1.30;;;30.40;86.50;;;;;;5069601;28;20039;-50
2022/07/31 12:13:29;;;;;;;2.60;1.45;;;30.60;85.50;;;;;;5068497;28;20047;-50
2022/07/31 12:16:07;;;;;;;2.45;1.40;;;30.20;84.50;;;;;;5082549;28;20036;-52
2022/07/31 12:18:48;;;;;;;2.38;1.60;;;30.00;85.90;;;;;;5122886;27;20011;-53
2022/07/31 12:21:15;;;;;;;1.75;1.40;;;30.30;86.40;;;;;;5127892;27;20084;-49
2022/07/31 12:23:47;;;;;;;5.45;1.85;;;30.40;84.90;;;;;;5122936;27;20106;-50
2022/07/31 12:26:21;;;;;;;6.07;2.15;;;;;;;;;;5118219;27;20031;-50
2022/07/31 12:29:00;;;;;;;4.70;1.50;;;31.30;92.50;;;;;;5120802;27;20042;-50
2022/07/31 12:31:27;;;;;;;2.75;1.35;;;31.20;92.20;;;;;;5119757;27;20031;-49
2022/07/31 12:33:53;;;;;;;2.90;1.90;;;31.00;92.20;;;;;;5123383;27;20470;-49
2022/07/31 12:36:19;;;;;;;2.00;1.77;;;30.60;92.50;;;;;;5109359;27;20029;-49
2022/07/31 12:38:45;;;;;;;2.70;1.50;;;30.40;95.80;;;;;;5127673;27;20035;-51
2022/07/31 12:41:11;;;;;;;3.70;1.70;;;30.40;95.60;;;;;;5122556;27;20061;-51
2022/07/31 12:43:37;;;;;;;3.00;1.40;;;;;;;;;;5128032;27;20023;-50
2022/07/31 12:46:06;;;;;;;3.75;1.42;;;30.10;97.00;;;;;;5121804;27;20036;-49
2022/07/31 12:48:32;;;;;;;1.75;1.42;;;30.00;88.60;;;;;;5099218;27;20520;-51
2022/07/31 12:51:01;;;;;;;4.03;1.40;;;30.00;86.00;;;;;;5114230;27;20115;-49
2022/07/31 12:53:31;;;;;;;1.90;1.23;;;30.10;84.40;;;;;;5128632;27;20039;-49
2022/07/31 13:09:48;;;;;;;4.47;1.40;;;30.40;78.90;;;;;;5157524;27;20378;-50
2022/07/31 13:12:14;;;;;;;1.10;1.00;;;31.00;78.00;;;;;;5072847;27;20046;-50
2022/07/31 13:14:39;;;;;;;1.70;1.30;;;30.60;77.30;;;;;;5110055;27;20115;-49
2022/07/31 13:17:06;;;;;;;5.97;1.73;;;30.70;77.70;;;;;;5148330;27;20427;-49
2022/07/31 13:19:31;;;;;;;1.48;1.00;;;30.80;78.40;;;;;;5147099;27;20106;-49
2022/07/31 13:21:57;;;;;;;3.75;1.38;;;30.60;77.00;;;;;;5147240;27;20117;-50
2022/07/31 13:24:24;;;;;;;1.08;0.98;;;30.60;77.20;;;;;;5146580;27;20080;-49
2022/07/31 13:26:50;;;;;;;6.70;2.65;;;30.40;77.20;;;;;;5148919;27;20027;-49
2022/07/31 13:29:16;;;;;;;1.63;1.02;;;30.70;77.80;;;;;;5146610;27;20170;-49
2022/07/31 13:31:42;;;;;;;2.95;1.08;;;30.60;76.90;;;;;;5147134;27;20027;-49
2022/07/31 13:34:08;;;;;;;1.80;1.10;;;30.70;76.60;;;;;;5148126;27;20031;-49
2022/07/31 13:36:34;;;;;;;2.28;1.50;;;30.80;75.80;;;;;;5147435;27;20023;-51